sensor_id;sensor_type;location;lat;lon;timestamp;P1;durP1;ratioP1;P2;durP2;ratioP2
39400;SDS011;54391;50.000;7.360;2023-03-14T00:01:07;6.53;;;1.20;;
39400;SDS011;54391;50.000;7.360;2023-03-14T00:03:34;6.18;;;1.23;;
39400;SDS011;54391;50.000;7.360;2023-03-14T00:06:02;7.72;;;1.63;;
39400;SDS011;54391;50.000;7.360;2023-03-14T00:08:29;5.70;;;1.83;;
39400;SDS011;54391;50.000;7.360;2023-03-14T00:11:03;7.10;;;1.50;;
39400;SDS011;54391;50.000;7.360;2023-03-14T00:13:31;3.70;;;1.30;;
39400;SDS011;54391;50.000;7.360;2023-03-14T00:16:01;5.68;;;1.42;;
39400;SDS011;54391;50.000;7.360;2023-03-14T00:18:28;6.57;;;1.63;;
39400;SDS011;54391;50.000;7.360;2023-03-14T00:20:57;8.70;;;1.77;;
39400;SDS011;54391;50.000;7.360;2023-03-14T00:23:24;3.40;;;0.77;;
39400;SDS011;54391;50.000;7.360;2023-03-14T00:25:51;4.63;;;1.42;;
39400;SDS011;54391;50.000;7.360;2023-03-14T00:28:20;5.93;;;1.13;;
39400;SDS011;54391;50.000;7.360;2023-03-14T00:30:47;4.15;;;1.08;;
39400;SDS011;54391;50.000;7.360;2023-03-14T00:33:15;4.03;;;0.95;;
39400;SDS011;54391;50.000;7.360;2023-03-14T00:35:42;2.03;;;0.80;;
39400;SDS011;54391;50.000;7.360;2023-03-14T00:38:09;3.72;;;1.23;;
39400;SDS011;54391;50.000;7.360;2023-03-14T00:40:38;6.47;;;1.48;;
39400;SDS011;54391;50.000;7.360;2023-03-14T00:43:05;2.80;;;1.17;;
39400;SDS011;54391;50.000;7.360;2023-03-14T00:45:34;3.85;;;1.65;;
39400;SDS011;54391;50.000;7.360;2023-03-14T00:48:01;7.40;;;1.50;;
39400;SDS011;54391;50.000;7.360;2023-03-14T00:50:28;5.70;;;1.25;;
39400;SDS011;54391;50.000;7.360;2023-03-14T00:52:56;5.80;;;1.00;;
39400;SDS011;54391;50.000;7.360;2023-03-14T00:55:23;3.72;;;1.40;;
39400;SDS011;54391;50.000;7.360;2023-03-14T00:57:51;5.97;;;1.10;;
39400;SDS011;54391;50.000;7.360;2023-03-14T01:00:18;4.25;;;1.00;;
39400;SDS011;54391;50.000;7.360;2023-03-14T01:02:47;6.05;;;1.50;;
39400;SDS011;54391;50.000;7.360;2023-03-14T01:05:15;6.80;;;1.73;;
39400;SDS011;54391;50.000;7.360;2023-03-14T01:07:43;7.20;;;1.50;;
39400;SDS011;54391;50.000;7.360;2023-03-14T01:10:10;6.00;;;1.63;;
39400;SDS011;54391;50.000;7.360;2023-03-14T01:12:37;4.68;;;1.17;;
39400;SDS011;54391;50.000;7.360;2023-03-14T01:15:05;6.85;;;1.92;;
39400;SDS011;54391;50.000;7.360;2023-03-14T01:17:33;7.20;;;0.95;;
39400;SDS011;54391;50.000;7.360;2023-03-14T01:20:03;2.88;;;0.80;;
39400;SDS011;54391;50.000;7.360;2023-03-14T01:22:34;2.45;;;0.73;;
39400;SDS011;54391;50.000;7.360;2023-03-14T01:25:01;3.55;;;1.00;;
39400;SDS011;54391;50.000;7.360;2023-03-14T01:27:28;2.17;;;1.10;;
39400;SDS011;54391;50.000;7.360;2023-03-14T01:29:55;1.80;;;0.80;;
39400;SDS011;54391;50.000;7.360;2023-03-14T01:32:23;4.10;;;0.95;;
39400;SDS011;54391;50.000;7.360;2023-03-14T01:34:51;1.60;;;0.95;;
39400;SDS011;54391;50.000;7.360;2023-03-14T01:37:20;2.00;;;0.90;;
39400;SDS011;54391;50.000;7.360;2023-03-14T01:39:48;2.97;;;0.70;;
39400;SDS011;54391;50.000;7.360;2023-03-14T01:42:17;2.65;;;1.00;;
39400;SDS011;54391;50.000;7.360;2023-03-14T01:44:49;2.92;;;1.30;;
39400;SDS011;54391;50.000;7.360;2023-03-14T01:47:17;3.55;;;1.27;;
39400;SDS011;54391;50.000;7.360;2023-03-14T01:49:45;2.35;;;0.95;;
39400;SDS011;54391;50.000;7.360;2023-03-14T01:52:16;3.80;;;0.93;;
39400;SDS011;54391;50.000;7.360;2023-03-14T01:54:50;5.32;;;1.30;;
39400;SDS011;54391;50.000;7.360;2023-03-14T01:57:19;4.20;;;1.02;;
39400;SDS011;54391;50.000;7.360;2023-03-14T01:59:48;3.05;;;0.98;;
39400;SDS011;54391;50.000;7.360;2023-03-14T02:02:19;4.85;;;1.05;;
39400;SDS011;54391;50.000;7.360;2023-03-14T02:04:47;4.35;;;0.98;;
39400;SDS011;54391;50.000;7.360;2023-03-14T02:07:18;7.30;;;1.23;;
39400;SDS011;54391;50.000;7.360;2023-03-14T02:10:06;5.80;;;0.90;;
39400;SDS011;54391;50.000;7.360;2023-03-14T02:12:35;7.18;;;1.20;;
39400;SDS011;54391;50.000;7.360;2023-03-14T02:15:21;6.18;;;1.00;;
39400;SDS011;54391;50.000;7.360;2023-03-14T02:17:53;3.00;;;1.13;;
39400;SDS011;54391;50.000;7.360;2023-03-14T02:20:29;2.55;;;1.27;;
39400;SDS011;54391;50.000;7.360;2023-03-14T02:22:59;2.85;;;1.15;;
39400;SDS011;54391;50.000;7.360;2023-03-14T02:25:31;4.80;;;1.35;;
39400;SDS011;54391;50.000;7.360;2023-03-14T02:28:04;4.03;;;1.05;;
39400;SDS011;54391;50.000;7.360;2023-03-14T02:30:32;5.03;;;0.88;;
39400;SDS011;54391;50.000;7.360;2023-03-14T02:33:01;5.88;;;1.20;;
39400;SDS011;54391;50.000;7.360;2023-03-14T02:35:32;5.20;;;1.33;;
39400;SDS011;54391;50.000;7.360;2023-03-14T02:38:03;3.15;;;1.45;;
39400;SDS011;54391;50.000;7.360;2023-03-14T02:40:39;5.88;;;1.35;;
39400;SDS011;54391;50.000;7.360;2023-03-14T02:43:08;4.05;;;1.13;;
39400;SDS011;54391;50.000;7.360;2023-03-14T02:45:40;5.45;;;1.27;;
39400;SDS011;54391;50.000;7.360;2023-03-14T02:48:10;3.83;;;1.25;;
39400;SDS011;54391;50.000;7.360;2023-03-14T02:50:41;5.65;;;1.10;;
39400;SDS011;54391;50.000;7.360;2023-03-14T02:53:11;4.63;;;0.70;;
39400;SDS011;54391;50.000;7.360;2023-03-14T02:55:44;3.50;;;1.08;;
39400;SDS011;54391;50.000;7.360;2023-03-14T02:58:15;3.60;;;0.80;;
39400;SDS011;54391;50.000;7.360;2023-03-14T03:00:43;2.10;;;0.70;;
39400;SDS011;54391;50.000;7.360;2023-03-14T03:03:11;4.22;;;0.90;;
39400;SDS011;54391;50.000;7.360;2023-03-14T03:05:39;2.22;;;0.73;;
39400;SDS011;54391;50.000;7.360;2023-03-14T03:08:08;2.25;;;0.60;;
39400;SDS011;54391;50.000;7.360;2023-03-14T03:10:36;1.88;;;0.80;;
39400;SDS011;54391;50.000;7.360;2023-03-14T03:13:05;3.08;;;0.93;;
39400;SDS011;54391;50.000;7.360;2023-03-14T03:15:34;3.38;;;0.73;;
39400;SDS011;54391;50.000;7.360;2023-03-14T03:18:01;3.75;;;0.98;;
39400;SDS011;54391;50.000;7.360;2023-03-14T03:20:29;1.85;;;0.65;;
39400;SDS011;54391;50.000;7.360;2023-03-14T03:22:58;1.92;;;0.75;;
39400;SDS011;54391;50.000;7.360;2023-03-14T03:25:27;3.88;;;0.80;;
39400;SDS011;54391;50.000;7.360;2023-03-14T03:27:55;3.90;;;0.90;;
39400;SDS011;54391;50.000;7.360;2023-03-14T03:30:22;2.13;;;1.02;;
39400;SDS011;54391;50.000;7.360;2023-03-14T03:32:51;5.45;;;0.95;;
39400;SDS011;54391;50.000;7.360;2023-03-14T03:35:18;4.22;;;0.88;;
39400;SDS011;54391;50.000;7.360;2023-03-14T03:37:46;3.88;;;0.63;;
39400;SDS011;54391;50.000;7.360;2023-03-14T03:40:13;4.07;;;0.80;;
39400;SDS011;54391;50.000;7.360;2023-03-14T03:42:41;4.75;;;0.80;;
39400;SDS011;54391;50.000;7.360;2023-03-14T03:45:09;4.22;;;0.90;;
39400;SDS011;54391;50.000;7.360;2023-03-14T03:47:47;4.63;;;1.05;;
39400;SDS011;54391;50.000;7.360;2023-03-14T03:50:16;3.05;;;0.50;;
39400;SDS011;54391;50.000;7.360;2023-03-14T03:52:43;2.60;;;0.63;;
39400;SDS011;54391;50.000;7.360;2023-03-14T03:55:11;2.40;;;0.77;;
39400;SDS011;54391;50.000;7.360;2023-03-14T03:57:38;5.05;;;0.90;;
39400;SDS011;54391;50.000;7.360;2023-03-14T04:00:06;1.90;;;0.88;;
39400;SDS011;54391;50.000;7.360;2023-03-14T04:02:39;2.10;;;0.60;;
39400;SDS011;54391;50.000;7.360;2023-03-14T04:05:10;1.73;;;0.60;;
39400;SDS011;54391;50.000;7.360;2023-03-14T04:07:43;1.15;;;0.40;;
39400;SDS011;54391;50.000;7.360;2023-03-14T04:10:15;0.70;;;0.40;;
39400;SDS011;54391;50.000;7.360;2023-03-14T04:12:56;0.85;;;0.32;;
39400;SDS011;54391;50.000;7.360;2023-03-14T04:15:26;2.20;;;0.40;;
39400;SDS011;54391;50.000;7.360;2023-03-14T04:17:56;0.30;;;0.30;;
39400;SDS011;54391;50.000;7.360;2023-03-14T04:20:24;0.68;;;0.50;;
39400;SDS011;54391;50.000;7.360;2023-03-14T04:22:53;1.30;;;0.50;;
39400;SDS011;54391;50.000;7.360;2023-03-14T04:25:20;0.70;;;0.47;;
39400;SDS011;54391;50.000;7.360;2023-03-14T04:27:53;2.55;;;0.60;;
39400;SDS011;54391;50.000;7.360;2023-03-14T04:30:27;1.13;;;0.50;;
39400;SDS011;54391;50.000;7.360;2023-03-14T04:33:01;2.47;;;0.80;;
39400;SDS011;54391;50.000;7.360;2023-03-14T04:35:32;2.28;;;0.93;;
39400;SDS011;54391;50.000;7.360;2023-03-14T04:38:05;2.33;;;0.80;;
39400;SDS011;54391;50.000;7.360;2023-03-14T04:40:36;0.95;;;0.60;;
39400;SDS011;54391;50.000;7.360;2023-03-14T04:43:05;1.40;;;0.80;;
39400;SDS011;54391;50.000;7.360;2023-03-14T04:45:33;1.10;;;0.70;;
39400;SDS011;54391;50.000;7.360;2023-03-14T04:48:03;1.27;;;0.80;;
39400;SDS011;54391;50.000;7.360;2023-03-14T04:50:31;1.85;;;1.00;;
39400;SDS011;54391;50.000;7.360;2023-03-14T04:52:58;0.52;;;0.47;;
39400;SDS011;54391;50.000;7.360;2023-03-14T04:55:29;1.27;;;0.70;;
39400;SDS011;54391;50.000;7.360;2023-03-14T04:57:57;0.68;;;0.40;;
39400;SDS011;54391;50.000;7.360;2023-03-14T05:00:25;1.25;;;0.40;;
39400;SDS011;54391;50.000;7.360;2023-03-14T05:03:25;1.25;;;0.40;;
39400;SDS011;54391;50.000;7.360;2023-03-14T05:06:16;0.30;;;0.30;;
39400;SDS011;54391;50.000;7.360;2023-03-14T05:08:59;0.88;;;0.17;;
39400;SDS011;54391;50.000;7.360;2023-03-14T05:12:01;0.25;;;0.25;;
39400;SDS011;54391;50.000;7.360;2023-03-14T05:14:41;1.85;;;0.20;;
39400;SDS011;54391;50.000;7.360;2023-03-14T05:17:23;0.52;;;0.28;;
39400;SDS011;54391;50.000;7.360;2023-03-14T05:20:19;1.87;;;0.43;;
39400;SDS011;54391;50.000;7.360;2023-03-14T05:22:55;0.93;;;0.20;;
39400;SDS011;54391;50.000;7.360;2023-03-14T05:25:46;0.68;;;0.20;;
39400;SDS011;54391;50.000;7.360;2023-03-14T05:28:32;0.52;;;0.20;;
39400;SDS011;54391;50.000;7.360;2023-03-14T05:31:22;0.10;;;0.10;;
39400;SDS011;54391;50.000;7.360;2023-03-14T05:33:57;0.20;;;0.20;;
39400;SDS011;54391;50.000;7.360;2023-03-14T05:36:40;1.45;;;0.20;;
39400;SDS011;54391;50.000;7.360;2023-03-14T05:39:42;0.22;;;0.20;;
39400;SDS011;54391;50.000;7.360;2023-03-14T05:42:33;0.30;;;0.30;;
39400;SDS011;54391;50.000;7.360;2023-03-14T05:45:18;0.40;;;0.30;;
39400;SDS011;54391;50.000;7.360;2023-03-14T05:48:13;1.27;;;0.20;;
39400;SDS011;54391;50.000;7.360;2023-03-14T05:51:00;1.42;;;0.32;;
39400;SDS011;54391;50.000;7.360;2023-03-14T05:53:46;0.20;;;0.20;;
39400;SDS011;54391;50.000;7.360;2023-03-14T05:56:32;0.30;;;0.20;;
39400;SDS011;54391;50.000;7.360;2023-03-14T05:59:20;0.20;;;0.20;;
39400;SDS011;54391;50.000;7.360;2023-03-14T06:01:59;0.82;;;0.30;;
39400;SDS011;54391;50.000;7.360;2023-03-14T06:04:33;0.20;;;0.20;;
39400;SDS011;54391;50.000;7.360;2023-03-14T06:07:01;1.25;;;0.40;;
39400;SDS011;54391;50.000;7.360;2023-03-14T06:09:30;0.38;;;0.38;;
39400;SDS011;54391;50.000;7.360;2023-03-14T06:12:00;1.17;;;0.55;;
39400;SDS011;54391;50.000;7.360;2023-03-14T06:14:33;0.93;;;0.50;;
39400;SDS011;54391;50.000;7.360;2023-03-14T06:17:02;1.00;;;0.63;;
39400;SDS011;54391;50.000;7.360;2023-03-14T06:19:36;0.17;;;0.17;;
39400;SDS011;54391;50.000;7.360;2023-03-14T06:22:03;0.80;;;0.40;;
39400;SDS011;54391;50.000;7.360;2023-03-14T06:24:33;0.68;;;0.20;;
39400;SDS011;54391;50.000;7.360;2023-03-14T06:27:00;0.70;;;0.47;;
39400;SDS011;54391;50.000;7.360;2023-03-14T06:29:28;1.85;;;0.30;;
39400;SDS011;54391;50.000;7.360;2023-03-14T06:31:55;0.30;;;0.30;;
39400;SDS011;54391;50.000;7.360;2023-03-14T06:34:24;0.63;;;0.28;;
39400;SDS011;54391;50.000;7.360;2023-03-14T06:36:53;2.13;;;0.30;;
39400;SDS011;54391;50.000;7.360;2023-03-14T06:39:20;0.20;;;0.20;;
39400;SDS011;54391;50.000;7.360;2023-03-14T06:41:55;1.40;;;0.15;;
39400;SDS011;54391;50.000;7.360;2023-03-14T06:44:22;0.28;;;0.20;;
39400;SDS011;54391;50.000;7.360;2023-03-14T06:46:49;0.88;;;0.20;;
39400;SDS011;54391;50.000;7.360;2023-03-14T06:49:17;0.35;;;0.13;;
39400;SDS011;54391;50.000;7.360;2023-03-14T06:51:47;0.73;;;0.30;;
39400;SDS011;54391;50.000;7.360;2023-03-14T06:54:15;0.20;;;0.20;;
39400;SDS011;54391;50.000;7.360;2023-03-14T06:56:43;0.10;;;0.10;;
39400;SDS011;54391;50.000;7.360;2023-03-14T06:59:11;0.38;;;0.20;;
39400;SDS011;54391;50.000;7.360;2023-03-14T07:01:39;0.13;;;0.13;;
39400;SDS011;54391;50.000;7.360;2023-03-14T07:04:09;0.43;;;0.20;;
39400;SDS011;54391;50.000;7.360;2023-03-14T07:06:40;0.32;;;0.20;;
39400;SDS011;54391;50.000;7.360;2023-03-14T07:09:11;0.65;;;0.28;;
39400;SDS011;54391;50.000;7.360;2023-03-14T07:11:42;0.73;;;0.30;;
39400;SDS011;54391;50.000;7.360;2023-03-14T07:14:10;0.85;;;0.30;;
39400;SDS011;54391;50.000;7.360;2023-03-14T07:16:38;1.42;;;0.30;;
39400;SDS011;54391;50.000;7.360;2023-03-14T07:19:06;0.28;;;0.28;;
39400;SDS011;54391;50.000;7.360;2023-03-14T07:21:35;1.38;;;0.40;;
39400;SDS011;54391;50.000;7.360;2023-03-14T07:24:06;5.15;;;0.50;;
39400;SDS011;54391;50.000;7.360;2023-03-14T07:26:35;0.98;;;0.30;;
39400;SDS011;54391;50.000;7.360;2023-03-14T07:29:02;1.13;;;0.30;;
39400;SDS011;54391;50.000;7.360;2023-03-14T07:31:31;0.90;;;0.30;;
39400;SDS011;54391;50.000;7.360;2023-03-14T07:33:59;0.43;;;0.20;;
39400;SDS011;54391;50.000;7.360;2023-03-14T07:36:30;1.10;;;0.32;;
39400;SDS011;54391;50.000;7.360;2023-03-14T07:38:58;0.10;;;0.10;;
39400;SDS011;54391;50.000;7.360;2023-03-14T07:41:34;0.90;;;0.47;;
39400;SDS011;54391;50.000;7.360;2023-03-14T07:44:30;0.30;;;0.30;;
39400;SDS011;54391;50.000;7.360;2023-03-14T07:46:57;0.32;;;0.20;;
39400;SDS011;54391;50.000;7.360;2023-03-14T07:49:24;1.48;;;0.30;;
39400;SDS011;54391;50.000;7.360;2023-03-14T07:51:52;0.70;;;0.30;;
39400;SDS011;54391;50.000;7.360;2023-03-14T07:54:19;0.10;;;0.10;;
39400;SDS011;54391;50.000;7.360;2023-03-14T07:56:49;0.20;;;0.20;;
39400;SDS011;54391;50.000;7.360;2023-03-14T07:59:17;0.55;;;0.20;;
39400;SDS011;54391;50.000;7.360;2023-03-14T08:01:44;0.20;;;0.10;;
39400;SDS011;54391;50.000;7.360;2023-03-14T08:04:11;0.20;;;0.20;;
39400;SDS011;54391;50.000;7.360;2023-03-14T08:06:38;0.13;;;0.13;;
39400;SDS011;54391;50.000;7.360;2023-03-14T08:09:06;0.10;;;0.10;;
39400;SDS011;54391;50.000;7.360;2023-03-14T08:11:33;0.20;;;0.20;;
39400;SDS011;54391;50.000;7.360;2023-03-14T08:14:02;0.10;;;0.10;;
39400;SDS011;54391;50.000;7.360;2023-03-14T08:16:29;0.45;;;0.20;;
39400;SDS011;54391;50.000;7.360;2023-03-14T08:18:57;0.68;;;0.20;;
39400;SDS011;54391;50.000;7.360;2023-03-14T08:21:24;0.40;;;0.20;;
39400;SDS011;54391;50.000;7.360;2023-03-14T08:23:51;0.22;;;0.22;;
39400;SDS011;54391;50.000;7.360;2023-03-14T08:26:19;0.20;;;0.20;;
39400;SDS011;54391;50.000;7.360;2023-03-14T08:28:46;0.98;;;0.20;;
39400;SDS011;54391;50.000;7.360;2023-03-14T08:31:15;0.35;;;0.20;;
39400;SDS011;54391;50.000;7.360;2023-03-14T08:33:42;0.20;;;0.10;;
39400;SDS011;54391;50.000;7.360;2023-03-14T08:36:10;0.93;;;0.20;;
39400;SDS011;54391;50.000;7.360;2023-03-14T08:38:37;0.20;;;0.20;;
39400;SDS011;54391;50.000;7.360;2023-03-14T08:41:08;0.20;;;0.20;;
39400;SDS011;54391;50.000;7.360;2023-03-14T08:43:35;0.17;;;0.17;;
39400;SDS011;54391;50.000;7.360;2023-03-14T08:46:03;0.40;;;0.25;;
39400;SDS011;54391;50.000;7.360;2023-03-14T08:48:32;0.15;;;0.15;;
39400;SDS011;54391;50.000;7.360;2023-03-14T08:51:03;0.28;;;0.28;;
39400;SDS011;54391;50.000;7.360;2023-03-14T08:53:31;0.20;;;0.20;;
39400;SDS011;54391;50.000;7.360;2023-03-14T08:55:59;0.17;;;0.17;;
39400;SDS011;54391;50.000;7.360;2023-03-14T08:58:27;0.20;;;0.20;;
39400;SDS011;54391;50.000;7.360;2023-03-14T09:00:54;0.30;;;0.30;;
39400;SDS011;54391;50.000;7.360;2023-03-14T09:03:22;0.20;;;0.20;;
39400;SDS011;54391;50.000;7.360;2023-03-14T09:05:50;1.17;;;0.20;;
39400;SDS011;54391;50.000;7.360;2023-03-14T09:08:18;0.63;;;0.25;;
39400;SDS011;54391;50.000;7.360;2023-03-14T09:10:46;0.10;;;0.10;;
39400;SDS011;54391;50.000;7.360;2023-03-14T09:13:13;0.52;;;0.20;;
39400;SDS011;54391;50.000;7.360;2023-03-14T09:15:40;0.25;;;0.25;;
39400;SDS011;54391;50.000;7.360;2023-03-14T09:18:08;0.30;;;0.30;;
39400;SDS011;54391;50.000;7.360;2023-03-14T09:20:36;0.73;;;0.30;;
39400;SDS011;54391;50.000;7.360;2023-03-14T09:23:04;0.30;;;0.30;;
39400;SDS011;54391;50.000;7.360;2023-03-14T09:25:32;0.10;;;0.10;;
39400;SDS011;54391;50.000;7.360;2023-03-14T09:27:59;0.55;;;0.20;;
39400;SDS011;54391;50.000;7.360;2023-03-14T09:30:26;0.20;;;0.20;;
39400;SDS011;54391;50.000;7.360;2023-03-14T09:32:54;0.20;;;0.20;;
39400;SDS011;54391;50.000;7.360;2023-03-14T09:35:22;1.27;;;0.30;;
39400;SDS011;54391;50.000;7.360;2023-03-14T09:37:49;0.30;;;0.10;;
39400;SDS011;54391;50.000;7.360;2023-03-14T09:40:18;0.20;;;0.20;;
39400;SDS011;54391;50.000;7.360;2023-03-14T09:42:46;0.10;;;0.10;;
39400;SDS011;54391;50.000;7.360;2023-03-14T09:45:16;0.10;;;0.10;;
39400;SDS011;54391;50.000;7.360;2023-03-14T09:47:44;0.30;;;0.30;;
39400;SDS011;54391;50.000;7.360;2023-03-14T09:50:13;0.17;;;0.17;;
39400;SDS011;54391;50.000;7.360;2023-03-14T09:52:41;0.10;;;0.10;;
39400;SDS011;54391;50.000;7.360;2023-03-14T09:55:12;0.10;;;0.10;;
39400;SDS011;54391;50.000;7.360;2023-03-14T09:57:43;0.45;;;0.13;;
39400;SDS011;54391;50.000;7.360;2023-03-14T10:00:14;0.20;;;0.10;;
39400;SDS011;54391;50.000;7.360;2023-03-14T10:02:52;0.10;;;0.10;;
39400;SDS011;54391;50.000;7.360;2023-03-14T10:05:21;0.10;;;0.10;;
39400;SDS011;54391;50.000;7.360;2023-03-14T10:07:50;0.10;;;0.10;;
39400;SDS011;54391;50.000;7.360;2023-03-14T10:10:19;0.00;;;0.00;;
39400;SDS011;54391;50.000;7.360;2023-03-14T10:12:54;0.22;;;0.10;;
39400;SDS011;54391;50.000;7.360;2023-03-14T10:15:24;0.00;;;0.00;;
39400;SDS011;54391;50.000;7.360;2023-03-14T10:17:53;0.15;;;0.10;;
39400;SDS011;54391;50.000;7.360;2023-03-14T10:20:31;0.20;;;0.10;;
39400;SDS011;54391;50.000;7.360;2023-03-14T10:22:59;0.10;;;0.10;;
39400;SDS011;54391;50.000;7.360;2023-03-14T10:25:27;0.45;;;0.20;;
39400;SDS011;54391;50.000;7.360;2023-03-14T10:27:57;0.10;;;0.10;;
39400;SDS011;54391;50.000;7.360;2023-03-14T10:30:29;0.03;;;0.03;;
39400;SDS011;54391;50.000;7.360;2023-03-14T10:33:09;0.80;;;0.10;;
39400;SDS011;54391;50.000;7.360;2023-03-14T10:35:38;0.20;;;0.13;;
39400;SDS011;54391;50.000;7.360;2023-03-14T10:38:10;0.00;;;0.00;;
39400;SDS011;54391;50.000;7.360;2023-03-14T10:40:40;0.47;;;0.10;;
39400;SDS011;54391;50.000;7.360;2023-03-14T10:43:16;0.35;;;0.20;;
39400;SDS011;54391;50.000;7.360;2023-03-14T10:45:51;0.17;;;0.17;;
39400;SDS011;54391;50.000;7.360;2023-03-14T10:48:24;0.10;;;0.10;;
39400;SDS011;54391;50.000;7.360;2023-03-14T10:50:57;0.17;;;0.17;;
39400;SDS011;54391;50.000;7.360;2023-03-14T10:53:32;0.30;;;0.30;;
39400;SDS011;54391;50.000;7.360;2023-03-14T10:56:02;0.20;;;0.20;;
39400;SDS011;54391;50.000;7.360;2023-03-14T10:58:33;0.20;;;0.20;;
39400;SDS011;54391;50.000;7.360;2023-03-14T11:01:08;0.20;;;0.20;;
39400;SDS011;54391;50.000;7.360;2023-03-14T11:03:47;3.33;;;0.38;;
39400;SDS011;54391;50.000;7.360;2023-03-14T11:06:20;0.25;;;0.25;;
39400;SDS011;54391;50.000;7.360;2023-03-14T11:08:52;0.73;;;0.32;;
39400;SDS011;54391;50.000;7.360;2023-03-14T11:11:24;0.30;;;0.30;;
39400;SDS011;54391;50.000;7.360;2023-03-14T11:14:00;2.15;;;0.20;;
39400;SDS011;54391;50.000;7.360;2023-03-14T11:16:38;0.20;;;0.20;;
39400;SDS011;54391;50.000;7.360;2023-03-14T11:22:18;0.45;;;0.30;;
39400;SDS011;54391;50.000;7.360;2023-03-14T11:24:51;0.20;;;0.20;;
39400;SDS011;54391;50.000;7.360;2023-03-14T11:27:34;0.40;;;0.40;;
39400;SDS011;54391;50.000;7.360;2023-03-14T11:30:15;0.20;;;0.20;;
39400;SDS011;54391;50.000;7.360;2023-03-14T11:32:44;0.22;;;0.20;;
39400;SDS011;54391;50.000;7.360;2023-03-14T11:35:16;0.35;;;0.35;;
39400;SDS011;54391;50.000;7.360;2023-03-14T11:37:51;0.50;;;0.30;;
39400;SDS011;54391;50.000;7.360;2023-03-14T11:40:21;0.60;;;0.60;;
39400;SDS011;54391;50.000;7.360;2023-03-14T11:42:51;0.60;;;0.40;;
39400;SDS011;54391;50.000;7.360;2023-03-14T11:45:27;1.30;;;0.50;;
39400;SDS011;54391;50.000;7.360;2023-03-14T11:48:05;2.20;;;0.85;;
39400;SDS011;54391;50.000;7.360;2023-03-14T11:50:34;0.27;;;0.27;;
39400;SDS011;54391;50.000;7.360;2023-03-14T11:53:03;1.50;;;0.63;;
39400;SDS011;54391;50.000;7.360;2023-03-14T11:55:35;2.80;;;0.80;;
39400;SDS011;54391;50.000;7.360;2023-03-14T11:58:11;0.52;;;0.52;;
39400;SDS011;54391;50.000;7.360;2023-03-14T12:00:41;1.02;;;0.47;;
39400;SDS011;54391;50.000;7.360;2023-03-14T12:03:11;0.60;;;0.30;;
39400;SDS011;54391;50.000;7.360;2023-03-14T12:05:50;1.25;;;0.57;;
39400;SDS011;54391;50.000;7.360;2023-03-14T12:11:16;0.60;;;0.40;;
39400;SDS011;54391;50.000;7.360;2023-03-14T12:13:48;0.40;;;0.40;;
39400;SDS011;54391;50.000;7.360;2023-03-14T12:16:27;0.85;;;0.60;;
39400;SDS011;54391;50.000;7.360;2023-03-14T12:24:56;3.03;;;0.63;;
39400;SDS011;54391;50.000;7.360;2023-03-14T12:27:40;0.90;;;0.80;;
39400;SDS011;54391;50.000;7.360;2023-03-14T12:30:23;2.05;;;0.60;;
39400;SDS011;54391;50.000;7.360;2023-03-14T12:35:58;1.10;;;0.70;;
39400;SDS011;54391;50.000;7.360;2023-03-14T12:38:46;0.68;;;0.68;;
39400;SDS011;54391;50.000;7.360;2023-03-14T12:41:28;1.48;;;1.00;;
39400;SDS011;54391;50.000;7.360;2023-03-14T12:50:37;2.38;;;1.45;;
39400;SDS011;54391;50.000;7.360;2023-03-14T12:53:26;2.35;;;1.50;;
39400;SDS011;54391;50.000;7.360;2023-03-14T12:56:26;1.85;;;1.10;;
39400;SDS011;54391;50.000;7.360;2023-03-14T12:59:14;1.38;;;1.00;;
39400;SDS011;54391;50.000;7.360;2023-03-14T13:01:58;2.28;;;1.25;;
39400;SDS011;54391;50.000;7.360;2023-03-14T13:04:28;1.77;;;1.17;;
39400;SDS011;54391;50.000;7.360;2023-03-14T13:07:00;1.40;;;1.00;;
39400;SDS011;54391;50.000;7.360;2023-03-14T13:09:36;1.27;;;1.13;;
39400;SDS011;54391;50.000;7.360;2023-03-14T13:12:15;3.22;;;1.48;;
39400;SDS011;54391;50.000;7.360;2023-03-14T13:14:45;2.22;;;1.20;;
39400;SDS011;54391;50.000;7.360;2023-03-14T13:17:13;1.90;;;1.30;;
39400;SDS011;54391;50.000;7.360;2023-03-14T13:19:41;1.83;;;0.98;;
39400;SDS011;54391;50.000;7.360;2023-03-14T13:22:15;1.73;;;1.15;;
39400;SDS011;54391;50.000;7.360;2023-03-14T13:24:48;0.95;;;0.80;;
39400;SDS011;54391;50.000;7.360;2023-03-14T13:27:16;1.85;;;1.20;;
39400;SDS011;54391;50.000;7.360;2023-03-14T13:29:46;3.15;;;1.50;;
39400;SDS011;54391;50.000;7.360;2023-03-14T13:32:16;2.55;;;1.77;;
39400;SDS011;54391;50.000;7.360;2023-03-14T13:34:45;2.83;;;1.60;;
39400;SDS011;54391;50.000;7.360;2023-03-14T13:37:17;2.58;;;1.90;;
39400;SDS011;54391;50.000;7.360;2023-03-14T13:39:50;2.92;;;1.70;;
39400;SDS011;54391;50.000;7.360;2023-03-14T13:42:18;3.25;;;1.80;;
39400;SDS011;54391;50.000;7.360;2023-03-14T13:44:45;2.42;;;1.50;;
39400;SDS011;54391;50.000;7.360;2023-03-14T13:47:14;2.65;;;1.60;;
39400;SDS011;54391;50.000;7.360;2023-03-14T13:49:43;3.40;;;1.75;;
39400;SDS011;54391;50.000;7.360;2023-03-14T13:52:24;5.00;;;1.50;;
39400;SDS011;54391;50.000;7.360;2023-03-14T13:54:57;2.08;;;1.73;;
39400;SDS011;54391;50.000;7.360;2023-03-14T13:57:27;2.40;;;1.50;;
39400;SDS011;54391;50.000;7.360;2023-03-14T13:59:58;5.88;;;1.50;;
39400;SDS011;54391;50.000;7.360;2023-03-14T14:02:30;3.38;;;1.42;;
39400;SDS011;54391;50.000;7.360;2023-03-14T14:04:58;3.33;;;1.58;;
39400;SDS011;54391;50.000;7.360;2023-03-14T14:07:27;7.20;;;2.60;;
39400;SDS011;54391;50.000;7.360;2023-03-14T14:09:54;3.13;;;1.20;;
39400;SDS011;54391;50.000;7.360;2023-03-14T14:12:28;1.73;;;1.30;;
39400;SDS011;54391;50.000;7.360;2023-03-14T14:14:59;2.22;;;0.93;;
39400;SDS011;54391;50.000;7.360;2023-03-14T14:17:30;2.60;;;1.10;;
39400;SDS011;54391;50.000;7.360;2023-03-14T14:19:59;1.63;;;0.80;;
39400;SDS011;54391;50.000;7.360;2023-03-14T14:22:28;3.03;;;0.82;;
39400;SDS011;54391;50.000;7.360;2023-03-14T14:24:58;2.78;;;0.80;;
39400;SDS011;54391;50.000;7.360;2023-03-14T14:27:28;3.08;;;1.25;;
39400;SDS011;54391;50.000;7.360;2023-03-14T14:29:58;2.95;;;0.80;;
39400;SDS011;54391;50.000;7.360;2023-03-14T14:32:33;2.15;;;1.00;;
39400;SDS011;54391;50.000;7.360;2023-03-14T14:35:02;3.10;;;1.10;;
39400;SDS011;54391;50.000;7.360;2023-03-14T14:37:31;2.67;;;0.88;;
39400;SDS011;54391;50.000;7.360;2023-03-14T14:40:05;1.45;;;0.77;;
39400;SDS011;54391;50.000;7.360;2023-03-14T14:42:39;3.80;;;0.95;;
39400;SDS011;54391;50.000;7.360;2023-03-14T14:45:09;2.30;;;1.08;;
39400;SDS011;54391;50.000;7.360;2023-03-14T14:47:47;1.42;;;1.05;;
39400;SDS011;54391;50.000;7.360;2023-03-14T14:50:20;2.00;;;1.10;;
39400;SDS011;54391;50.000;7.360;2023-03-14T14:52:55;4.28;;;1.10;;
39400;SDS011;54391;50.000;7.360;2023-03-14T14:55:28;3.10;;;1.50;;
39400;SDS011;54391;50.000;7.360;2023-03-14T14:57:56;7.53;;;2.35;;
39400;SDS011;54391;50.000;7.360;2023-03-14T15:00:24;2.45;;;0.77;;
39400;SDS011;54391;50.000;7.360;2023-03-14T15:02:53;2.20;;;0.85;;
39400;SDS011;54391;50.000;7.360;2023-03-14T15:05:22;3.78;;;1.00;;
39400;SDS011;54391;50.000;7.360;2023-03-14T15:07:50;3.35;;;1.13;;
39400;SDS011;54391;50.000;7.360;2023-03-14T15:10:18;6.38;;;1.00;;
39400;SDS011;54391;50.000;7.360;2023-03-14T15:12:48;4.03;;;0.95;;
39400;SDS011;54391;50.000;7.360;2023-03-14T15:15:15;2.65;;;0.93;;
39400;SDS011;54391;50.000;7.360;2023-03-14T15:17:44;1.75;;;0.77;;
39400;SDS011;54391;50.000;7.360;2023-03-14T15:20:12;2.80;;;0.82;;
39400;SDS011;54391;50.000;7.360;2023-03-14T15:22:41;4.05;;;0.90;;
39400;SDS011;54391;50.000;7.360;2023-03-14T15:25:08;5.07;;;1.30;;
39400;SDS011;54391;50.000;7.360;2023-03-14T15:27:36;1.17;;;0.90;;
39400;SDS011;54391;50.000;7.360;2023-03-14T15:30:11;6.22;;;0.80;;
39400;SDS011;54391;50.000;7.360;2023-03-14T15:32:39;0.95;;;0.80;;
39400;SDS011;54391;50.000;7.360;2023-03-14T15:35:07;3.72;;;0.90;;